Overview Statistics Trail Chart Weather Telemetry Raw packets
 

This is the latest recevied weather packets stored in our database for station/object OK2ZA-6. If no packets are shown the sender has not sent any weather packets the latest 10 day(s).

<< 42 43 44 45 46 47 48 >>
Time Temp. Humidity Pressure Rain* Wind** Luminosity Snow
1788058204 15° C 79% 1016.8 hPa 0 mm - - -
1788057604 15° C 79% 1016.8 hPa 0 mm - - -
1788057004 15° C 79% 1016.8 hPa 0 mm - - -
1788056404 15.56° C 78% 1016.9 hPa 0 mm - - -
1788055804 15° C 78% 1016.8 hPa 0 mm - - -
1788055204 15° C 79% 1016.8 hPa 0 mm - - -
1788054604 15° C 79% 1016.9 hPa 0 mm - - -
1788054004 15° C 79% 1016.9 hPa 0 mm - - -
1788053406 15° C 79% 1016.9 hPa 0 mm - - -
1788052804 15° C 79% 1016.9 hPa 0 mm - - -
1788052204 15.56° C 78% 1016.9 hPa 0 mm - - -
1788051604 15.56° C 77% 1016.9 hPa 0 mm - - -
1788051004 15.56° C 76% 1016.9 hPa 0 mm - - -
1788050404 15.56° C 77% 1016.9 hPa 0 mm - - -
1788049804 15.56° C 79% 1016.8 hPa 0 mm - - -
1788049204 15.56° C 78% 1016.9 hPa 0 mm - - -
1788048604 15.56° C 78% 1016.9 hPa 0 mm - - -
1788048004 15.56° C 77% 1016.9 hPa 0 mm - - -
1788047404 16.11° C 75% 1016.9 hPa 0 mm - - -
1788046804 16.67° C 72% 1016.9 hPa 0 mm - - -
1788046204 16.67° C 71% 1016.9 hPa 0 mm - - -
1788045604 16.67° C 72% 1016.8 hPa 0 mm - - -
1788045004 16.11° C 74% 1016.7 hPa 0 mm - - -
1788044404 15.56° C 76% 1016.8 hPa 0 mm - - -
1788043804 16.11° C 75% 1016.8 hPa 0 mm - - -

* Rain latest hour (hover to see other rain measurements)
** Current wind speed in m/s (hover to see current wind gust speed)